Time;durP1;ratioP1;P1;durP2;ratioP2;P2;SDS_P1;SDS_P2;PMS_P1;PMS_P2;Temp;Humidity;BMP_temperature;BMP_pressure;BME280_temperature;BME280_humidity;BME280_pressure;Samples;Min_cycle;Max_cycle;Signal;HPM_P1;HPM_P2
2022/08/19 00:00:08;;;;;;;10.77;9.60;;;17.80;99.90;;;;;;5078268;28;20214;-38
2022/08/19 00:02:35;;;;;;;10.97;9.47;;;17.80;99.90;;;;;;5095328;28;20201;-41
2022/08/19 00:05:01;;;;;;;11.70;9.63;;;17.80;99.90;;;;;;5077199;28;20186;-40
2022/08/19 00:07:26;;;;;;;13.10;9.70;;;17.80;99.90;;;;;;5095306;28;20199;-40
2022/08/19 00:09:52;;;;;;;11.03;9.83;;;17.70;99.90;;;;;;5077138;28;20175;-40
2022/08/19 00:12:17;;;;;;;12.80;10.23;;;17.70;99.90;;;;;;5095103;28;20187;-40
2022/08/19 00:14:43;;;;;;;11.20;10.10;;;17.70;99.90;;;;;;5094982;28;20178;-40
2022/08/19 00:17:09;;;;;;;10.73;9.33;;;17.60;99.90;;;;;;5095022;28;20261;-40
2022/08/19 00:19:36;;;;;;;13.03;9.77;;;17.60;99.90;;;;;;5095348;28;20653;-41
2022/08/19 00:22:03;;;;;;;11.50;10.30;;;17.50;99.90;;;;;;5095374;28;20214;-41
2022/08/19 00:24:28;;;;;;;13.57;10.97;;;17.50;99.90;;;;;;5095165;28;20183;-41
2022/08/19 00:26:56;;;;;;;12.83;10.53;;;17.50;99.90;;;;;;5094798;28;20550;-41
2022/08/19 00:29:23;;;;;;;10.70;9.60;;;17.40;99.90;;;;;;5095106;28;20179;-40
2022/08/19 00:31:53;;;;;;;10.93;9.83;;;17.40;99.90;;;;;;5076524;28;20226;-40
2022/08/19 00:34:18;;;;;;;10.67;9.63;;;17.40;99.90;;;;;;5094615;28;20186;-41
2022/08/19 00:36:45;;;;;;;14.50;10.70;;;17.30;99.90;;;;;;5094998;28;20179;-40
2022/08/19 00:39:11;;;;;;;16.27;10.10;;;17.30;99.90;;;;;;5094686;28;20217;-39
2022/08/19 00:41:38;;;;;;;11.53;10.37;;;17.20;99.90;;;;;;5095062;28;20195;-40
2022/08/19 00:44:07;;;;;;;13.00;11.67;;;17.20;99.90;;;;;;5094817;28;20191;-40
2022/08/19 00:46:36;;;;;;;14.27;11.43;;;17.10;99.90;;;;;;5094726;28;20290;-40
2022/08/19 00:49:09;;;;;;;14.87;12.17;;;17.10;99.90;;;;;;5094380;28;20179;-40
2022/08/19 00:51:36;;;;;;;14.20;12.70;;;17.10;99.90;;;;;;5094604;28;20219;-40
2022/08/19 00:54:02;;;;;;;15.30;12.53;;;17.00;99.90;;;;;;5094284;28;20634;-40
2022/08/19 00:56:30;;;;;;;17.30;12.40;;;17.00;99.90;;;;;;5094568;28;20174;-41
2022/08/19 00:58:58;;;;;;;14.10;12.60;;;16.90;99.90;;;;;;5094364;28;20224;-39
2022/08/19 01:01:23;;;;;;;14.30;12.80;;;16.90;99.90;;;;;;5076109;28;20230;-39
2022/08/19 01:03:50;;;;;;;13.87;12.47;;;16.90;99.90;;;;;;5094246;28;20223;-40
2022/08/19 01:06:16;;;;;;;16.00;13.10;;;16.90;99.90;;;;;;5094068;28;20203;-40
2022/08/19 01:08:42;;;;;;;14.67;13.17;;;16.80;99.90;;;;;;5094991;28;20176;-40
2022/08/19 01:11:08;;;;;;;14.23;12.23;;;16.80;99.90;;;;;;5093989;28;20194;-41
2022/08/19 01:13:35;;;;;;;13.47;12.07;;;16.70;99.90;;;;;;5094355;28;20632;-41
2022/08/19 01:16:06;;;;;;;13.87;12.03;;;16.80;99.90;;;;;;5093977;28;20275;-41
2022/08/19 01:18:37;;;;;;;12.50;11.20;;;16.70;99.90;;;;;;5094098;28;20205;-40
2022/08/19 01:21:10;;;;;;;14.97;12.73;;;16.60;99.90;;;;;;5094128;28;20544;-42
2022/08/19 01:23:42;;;;;;;15.60;12.57;;;16.60;99.90;;;;;;5094214;28;20174;-41
2022/08/19 01:26:14;;;;;;;12.83;11.53;;;16.60;99.90;;;;;;5094088;28;20201;-40
2022/08/19 01:28:40;;;;;;;13.47;12.03;;;16.50;99.90;;;;;;5094091;28;20180;-39
2022/08/19 01:31:13;;;;;;;12.97;11.67;;;16.50;99.90;;;;;;5093761;28;20713;-40
2022/08/19 01:33:39;;;;;;;14.00;12.60;;;16.40;99.90;;;;;;5094310;28;20164;-41
2022/08/19 01:36:13;;;;;;;13.33;11.93;;;16.40;99.90;;;;;;5093809;28;20253;-46
2022/08/19 01:38:42;;;;;;;14.47;12.30;;;16.40;99.90;;;;;;5095014;28;20194;-37
2022/08/19 01:41:08;;;;;;;13.73;12.27;;;16.40;99.90;;;;;;5093518;28;20202;-38
2022/08/19 01:43:34;;;;;;;15.67;12.10;;;16.40;99.90;;;;;;5093984;28;20607;-38
2022/08/19 01:46:00;;;;;;;14.47;12.27;;;16.30;99.90;;;;;;5093085;28;20226;-37
2022/08/19 01:48:29;;;;;;;15.17;12.80;;;16.30;99.90;;;;;;5093514;28;20368;-38
2022/08/19 01:50:54;;;;;;;12.70;11.40;;;16.30;99.90;;;;;;5093576;28;20186;-39
2022/08/19 01:53:20;;;;;;;15.83;12.73;;;16.20;99.90;;;;;;5093734;28;20622;-38
2022/08/19 01:55:47;;;;;;;14.40;12.77;;;16.10;99.90;;;;;;5093373;28;20179;-38
2022/08/19 01:58:20;;;;;;;18.67;13.57;;;16.20;99.90;;;;;;5093477;28;20688;-40
2022/08/19 02:00:45;;;;;;;14.93;13.37;;;16.10;99.90;;;;;;5093676;28;20206;-38
2022/08/19 02:03:11;;;;;;;14.87;13.37;;;16.10;99.90;;;;;;5093398;28;20185;-39
2022/08/19 02:05:38;;;;;;;14.90;13.30;;;16.10;99.90;;;;;;5093591;28;20556;-37
2022/08/19 02:08:05;;;;;;;14.90;12.73;;;16.10;99.90;;;;;;5093935;28;20174;-39
2022/08/19 02:10:31;;;;;;;14.80;13.27;;;16.10;99.90;;;;;;5093300;28;20186;-39
2022/08/19 02:12:57;;;;;;;17.50;14.10;;;16.00;99.90;;;;;;5093263;28;20240;-38
2022/08/19 02:15:23;;;;;;;15.93;13.57;;;16.00;99.90;;;;;;5093353;28;20187;-38
2022/08/19 02:17:48;;;;;;;15.83;14.03;;;15.90;99.90;;;;;;5093474;28;20553;-37
2022/08/19 02:20:15;;;;;;;16.77;14.70;;;15.90;99.90;;;;;;5093186;28;20179;-38
2022/08/19 02:22:42;;;;;;;17.60;14.73;;;15.90;99.90;;;;;;5093194;28;20647;-38
2022/08/19 02:25:09;;;;;;;17.23;15.40;;;15.80;99.90;;;;;;5093391;28;20232;-38
2022/08/19 02:27:35;;;;;;;21.33;18.90;;;15.80;99.90;;;;;;5093326;28;20206;-38
2022/08/19 02:30:02;;;;;;;20.97;18.67;;;15.80;99.90;;;;;;5093187;28;20167;-39
2022/08/19 02:32:29;;;;;;;23.10;19.67;;;15.80;99.90;;;;;;5093017;28;20547;-38
2022/08/19 02:34:54;;;;;;;22.70;17.73;;;15.80;99.90;;;;;;5093422;28;20209;-38
2022/08/19 02:40:04;;;;;;;22.60;18.93;;;15.80;99.90;;;;;;5093062;28;20216;-38
2022/08/19 02:42:31;;;;;;;22.77;19.60;;;15.80;99.90;;;;;;5092925;28;20182;-38
2022/08/19 02:44:56;;;;;;;24.93;21.10;;;15.80;99.90;;;;;;5092853;28;20183;-39
2022/08/19 02:47:22;;;;;;;28.50;22.37;;;15.70;99.90;;;;;;5092927;28;20256;-38
2022/08/19 02:49:49;;;;;;;25.50;21.57;;;15.80;99.90;;;;;;5093181;28;20213;-40
2022/08/19 02:52:15;;;;;;;24.57;21.10;;;15.80;99.90;;;;;;5092940;28;20186;-39
2022/08/19 02:54:41;;;;;;;23.70;19.87;;;15.80;99.90;;;;;;5093701;28;20580;-39
2022/08/19 02:57:07;;;;;;;26.73;22.73;;;15.80;99.90;;;;;;5092924;28;20194;-38
2022/08/19 02:59:33;;;;;;;26.57;23.33;;;15.70;99.90;;;;;;5096495;28;20220;-38
2022/08/19 03:01:59;;;;;;;26.20;23.27;;;15.70;99.90;;;;;;5096517;28;20198;-38
2022/08/19 03:04:25;;;;;;;29.37;23.80;;;15.80;99.90;;;;;;5096517;28;20181;-39
2022/08/19 03:06:51;;;;;;;28.77;23.77;;;15.80;99.90;;;;;;5096410;28;20195;-38
2022/08/19 03:09:19;;;;;;;26.37;22.77;;;15.80;99.90;;;;;;5096655;28;20650;-36
2022/08/19 03:11:45;;;;;;;30.33;23.83;;;15.80;99.90;;;;;;5096278;28;20240;-38
2022/08/19 03:14:12;;;;;;;27.93;23.93;;;15.80;99.90;;;;;;5096435;28;20175;-40
2022/08/19 03:16:44;;;;;;;28.03;23.43;;;15.90;99.90;;;;;;5096149;28;20205;-39
2022/08/19 03:19:09;;;;;;;28.00;23.50;;;15.90;99.90;;;;;;5096525;28;20167;-39
2022/08/19 03:21:35;;;;;;;28.53;24.60;;;15.90;99.90;;;;;;5077942;28;20681;-39
2022/08/19 03:24:04;;;;;;;28.40;23.33;;;16.00;99.90;;;;;;5096096;28;20186;-38
2022/08/19 03:26:30;;;;;;;28.77;24.27;;;16.00;99.90;;;;;;5077854;28;20224;-37
2022/08/19 03:28:55;;;;;;;29.00;24.47;;;16.10;99.90;;;;;;5096482;28;20297;-40
2022/08/19 03:31:23;;;;;;;28.37;23.77;;;16.10;99.90;;;;;;5096016;28;20190;-39
2022/08/19 03:33:50;;;;;;;29.93;23.40;;;16.10;99.90;;;;;;5096217;28;20522;-39
2022/08/19 03:36:22;;;;;;;27.03;23.73;;;16.10;99.90;;;;;;5096267;28;20587;-39
2022/08/19 03:38:54;;;;;;;28.33;23.20;;;16.20;99.90;;;;;;5095839;28;20175;-38
2022/08/19 03:41:26;;;;;;;28.67;23.67;;;16.20;99.90;;;;;;5096053;28;20278;-39
2022/08/19 03:43:53;;;;;;;27.90;23.57;;;16.20;99.90;;;;;;5096131;28;20189;-39
2022/08/19 03:46:22;;;;;;;28.27;23.33;;;16.20;99.90;;;;;;5095606;28;20199;-39
2022/08/19 03:48:53;;;;;;;27.37;21.37;;;16.30;99.90;;;;;;5095656;28;20224;-39
2022/08/19 03:51:31;;;;;;;29.60;23.60;;;16.20;99.90;;;;;;5095674;28;20278;-38
2022/08/19 03:53:59;;;;;;;25.03;22.03;;;16.20;99.90;;;;;;5095581;28;20265;-39
2022/08/19 03:56:26;;;;;;;28.23;22.87;;;16.20;99.90;;;;;;5095774;28;20183;-39
2022/08/19 03:58:52;;;;;;;25.57;22.77;;;16.20;99.90;;;;;;5095475;28;20670;-39
2022/08/19 04:01:19;;;;;;;29.20;23.50;;;16.20;99.90;;;;;;5095431;28;20198;-39
2022/08/19 04:03:46;;;;;;;26.23;22.93;;;16.20;99.90;;;;;;5095771;28;20178;-38
2022/08/19 04:06:14;;;;;;;30.40;24.40;;;16.20;99.90;;;;;;5095297;28;20195;-37
2022/08/19 04:08:45;;;;;;;29.43;23.20;;;16.20;99.90;;;;;;5095315;28;20171;-40
2022/08/19 04:11:14;;;;;;;30.93;25.13;;;16.20;99.90;;;;;;5094999;28;20202;-39
2022/08/19 04:13:40;;;;;;;27.97;23.43;;;16.30;99.90;;;;;;5095417;28;20194;-39
2022/08/19 04:16:08;;;;;;;26.27;23.03;;;16.30;99.90;;;;;;5095114;28;20227;-38
2022/08/19 04:18:34;;;;;;;30.37;24.73;;;16.30;99.90;;;;;;5095434;28;20202;-39
2022/08/19 04:21:00;;;;;;;32.13;23.67;;;16.30;99.90;;;;;;5095183;28;20202;-40
2022/08/19 04:23:27;;;;;;;33.70;24.20;;;16.40;99.90;;;;;;5077196;28;20266;-39
2022/08/19 04:25:54;;;;;;;31.23;25.47;;;16.40;99.90;;;;;;5095062;28;20584;-39
2022/08/19 04:28:19;;;;;;;29.40;24.97;;;16.40;99.90;;;;;;5077403;28;20181;-36
2022/08/19 04:30:48;;;;;;;31.73;25.33;;;16.40;99.90;;;;;;5095289;28;20207;-38
2022/08/19 04:33:17;;;;;;;33.17;26.27;;;16.50;99.90;;;;;;5095628;28;20260;-39
2022/08/19 04:35:46;;;;;;;31.67;26.10;;;16.50;99.90;;;;;;5095390;28;20183;-38
2022/08/19 04:38:13;;;;;;;29.90;24.70;;;16.50;99.90;;;;;;5095645;28;20179;-39
2022/08/19 04:43:29;;;;;;;34.63;24.93;;;16.50;99.90;;;;;;5094713;28;20197;-38
2022/08/19 04:45:55;;;;;;;30.20;25.40;;;16.50;99.90;;;;;;5094606;28;20627;-39
2022/08/19 04:48:25;;;;;;;35.33;25.57;;;16.50;99.90;;;;;;5095091;28;20253;-37
2022/08/19 04:50:56;;;;;;;31.43;25.47;;;16.50;99.90;;;;;;5094468;28;20195;-37
2022/08/19 04:53:22;;;;;;;36.23;26.47;;;16.50;99.90;;;;;;5094252;28;20166;-38
2022/08/19 04:55:47;;;;;;;33.70;26.13;;;16.50;99.90;;;;;;5094602;28;20179;-38
2022/08/19 04:58:13;;;;;;;35.17;26.03;;;16.50;99.90;;;;;;5094223;28;20265;-37
2022/08/19 05:00:39;;;;;;;33.10;26.27;;;16.50;99.90;;;;;;5094220;28;20199;-38
2022/08/19 05:03:05;;;;;;;35.23;26.27;;;16.50;99.90;;;;;;5094537;28;20178;-40
2022/08/19 05:05:32;;;;;;;31.63;26.30;;;16.50;99.90;;;;;;5094360;28;20539;-38
2022/08/19 05:07:58;;;;;;;35.03;26.97;;;16.50;99.90;;;;;;5094372;28;20225;-38
2022/08/19 05:10:23;;;;;;;31.90;24.93;;;16.60;99.90;;;;;;5094256;28;20633;-38
2022/08/19 05:12:49;;;;;;;34.90;26.27;;;16.50;99.90;;;;;;5094156;28;20199;-39
2022/08/19 05:15:14;;;;;;;33.77;26.77;;;16.50;99.90;;;;;;5094315;28;20205;-37
2022/08/19 05:22:31;;;;;;;34.70;27.73;;;16.50;99.90;;;;;;5094888;28;20171;-39
2022/08/19 05:23:11;;;;;;;35.87;26.77;;;16.50;99.90;;;;;;5094114;28;20626;-36
2022/08/19 05:25:39;;;;;;;36.67;27.57;;;16.60;99.90;;;;;;5094161;28;20194;-39
2022/08/19 05:28:05;;;;;;;36.23;28.57;;;16.60;99.90;;;;;;5094167;28;20179;-39
2022/08/19 05:30:30;;;;;;;36.77;27.80;;;16.60;99.90;;;;;;5094154;28;20202;-37
2022/08/19 05:32:56;;;;;;;41.33;29.03;;;16.70;99.90;;;;;;5093803;28;20261;-37
2022/08/19 05:35:23;;;;;;;43.60;29.60;;;16.70;99.90;;;;;;5076398;28;20175;-38
2022/08/19 05:37:49;;;;;;;37.67;28.47;;;16.70;99.90;;;;;;5093696;28;20203;-38
2022/08/19 05:40:14;;;;;;;37.97;28.77;;;16.70;99.90;;;;;;5093675;28;20259;-39
2022/08/19 05:42:40;;;;;;;42.33;28.37;;;16.70;99.90;;;;;;5094043;28;20228;-37
2022/08/19 05:45:07;;;;;;;42.67;28.47;;;16.70;99.90;;;;;;5093965;28;20167;-37
2022/08/19 05:47:32;;;;;;;43.57;29.10;;;16.80;99.90;;;;;;5093609;28;20195;-37
2022/08/19 05:49:58;;;;;;;41.90;30.10;;;16.80;99.90;;;;;;5093837;28;20251;-37
2022/08/19 05:52:24;;;;;;;39.97;30.13;;;16.80;99.90;;;;;;5093451;28;20542;-38
2022/08/19 05:54:50;;;;;;;40.50;29.40;;;16.90;99.90;;;;;;5094390;28;20682;-36
2022/08/19 05:57:16;;;;;;;41.90;30.03;;;16.90;99.90;;;;;;5093786;28;20522;-38
2022/08/19 05:59:43;;;;;;;44.03;30.33;;;16.90;99.90;;;;;;5093704;28;20208;-39
2022/08/19 06:02:12;;;;;;;43.43;31.33;;;17.00;99.90;;;;;;5093476;28;20579;-36
2022/08/19 06:04:39;;;;;;;40.70;30.57;;;17.10;99.90;;;;;;5093448;28;20206;-37
2022/08/19 06:07:04;;;;;;;43.17;30.33;;;17.10;99.90;;;;;;5093707;28;20234;-38
2022/08/19 06:09:30;;;;;;;45.53;30.87;;;17.10;99.90;;;;;;5093465;28;20206;-38
2022/08/19 06:11:59;;;;;;;47.83;32.40;;;17.20;99.90;;;;;;5093377;28;20191;-39
2022/08/19 06:14:28;;;;;;;47.03;31.80;;;17.20;99.90;;;;;;5093590;28;20186;-38
2022/08/19 06:16:54;;;;;;;49.50;31.73;;;17.30;99.90;;;;;;5075375;28;20186;-39
2022/08/19 06:19:22;;;;;;;54.70;33.00;;;17.40;99.90;;;;;;5093615;28;20235;-38
2022/08/19 06:21:50;;;;;;;48.93;33.43;;;17.60;99.90;;;;;;5093516;28;20191;-39
2022/08/19 06:24:19;;;;;;;50.37;32.47;;;17.70;99.90;;;;;;5075173;28;20179;-39
2022/08/19 06:26:47;;;;;;;50.90;34.87;;;17.70;99.90;;;;;;5093421;28;20202;-36
2022/08/19 06:29:14;;;;;;;51.37;33.37;;;17.80;99.90;;;;;;5093672;28;20304;-39
2022/08/19 06:31:45;;;;;;;50.37;34.50;;;17.80;99.90;;;;;;5093304;28;20201;-39
2022/08/19 06:34:11;;;;;;;49.00;33.50;;;17.80;99.90;;;;;;5096498;28;20220;-44
2022/08/19 06:36:43;;;;;;;57.80;35.13;;;17.80;99.90;;;;;;5079144;28;20260;-38
2022/08/19 06:39:16;;;;;;;56.23;35.97;;;17.80;99.90;;;;;;5097433;28;20201;-38
2022/08/19 06:41:44;;;;;;;58.77;37.47;;;17.90;99.90;;;;;;5097307;28;20286;-39
2022/08/19 06:44:10;;;;;;;56.60;35.70;;;17.90;99.90;;;;;;5097219;28;20654;-38
2022/08/19 06:46:37;;;;;;;56.50;35.23;;;18.00;99.90;;;;;;5096905;28;20281;-38
2022/08/19 06:49:03;;;;;;;54.97;35.53;;;18.10;99.90;;;;;;5097147;28;20249;-39
2022/08/19 06:51:31;;;;;;;54.53;36.23;;;18.30;99.90;;;;;;5096839;28;20662;-39
2022/08/19 06:53:57;;;;;;;51.47;34.30;;;18.40;99.90;;;;;;5097934;28;20599;-39
2022/08/19 06:56:30;;;;;;;50.87;33.93;;;18.60;99.90;;;;;;5097375;28;20202;-39
2022/08/19 06:58:56;;;;;;;51.37;33.17;;;18.70;99.90;;;;;;5097380;28;20243;-43
2022/08/19 07:01:22;;;;;;;60.40;34.17;;;18.80;99.90;;;;;;5096873;28;20223;-42
2022/08/19 07:03:48;;;;;;;53.80;34.17;;;18.80;99.90;;;;;;5097066;28;20175;-41
2022/08/19 07:06:17;;;;;;;60.30;33.03;;;18.80;99.90;;;;;;5096769;28;20199;-44
2022/08/19 07:08:44;;;;;;;57.07;34.70;;;18.90;99.90;;;;;;5096558;28;20171;-42
2022/08/19 07:11:12;;;;;;;50.77;33.87;;;19.00;99.90;;;;;;5096732;28;20287;-42
2022/08/19 07:13:39;;;;;;;51.80;32.13;;;19.10;99.90;;;;;;5096328;28;20171;-42
2022/08/19 07:16:07;;;;;;;49.63;31.70;;;19.10;99.90;;;;;;5096101;28;20715;-43
2022/08/19 07:18:32;;;;;;;47.47;30.47;;;19.10;99.90;;;;;;5096254;28;20174;-42
2022/08/19 07:21:07;;;;;;;42.90;28.17;;;19.20;99.90;;;;;;5096056;28;20209;-44
2022/08/19 07:23:33;;;;;;;41.93;26.70;;;19.20;99.90;;;;;;5096119;28;20182;-42
2022/08/19 07:26:25;;;;;;;36.80;24.93;;;19.30;99.90;;;;;;5096905;28;20320;-41
2022/08/19 07:28:51;;;;;;;36.87;23.93;;;19.50;99.90;;;;;;5095955;28;20213;-42
2022/08/19 07:31:20;;;;;;;33.97;23.03;;;19.60;99.90;;;;;;5096010;28;20191;-42
2022/08/19 07:33:46;;;;;;;37.10;24.07;;;19.80;99.90;;;;;;5096033;28;20179;-43
2022/08/19 07:36:14;;;;;;;33.67;23.23;;;19.90;99.90;;;;;;5096557;28;20175;-40
2022/08/19 07:38:43;;;;;;;35.47;24.07;;;20.10;99.90;;;;;;5095846;28;20187;-43
2022/08/19 07:41:11;;;;;;;32.93;23.20;;;20.20;99.90;;;;;;5096314;28;20190;-41
2022/08/19 07:43:38;;;;;;;35.13;24.50;;;20.40;99.90;;;;;;5096739;28;20249;-43
2022/08/19 07:46:04;;;;;;;32.03;22.97;;;20.60;99.90;;;;;;5094620;28;20210;-43
2022/08/19 07:48:30;;;;;;;32.63;22.27;;;20.60;99.90;;;;;;5095772;28;20178;-43
2022/08/19 07:51:01;;;;;;;33.87;21.80;;;20.80;99.90;;;;;;5095610;28;20186;-43
2022/08/19 07:53:27;;;;;;;32.27;21.63;;;21.00;99.90;;;;;;5095636;28;20167;-43
2022/08/19 07:55:53;;;;;;;26.97;19.37;;;21.20;99.90;;;;;;5095524;28;20186;-41
2022/08/19 07:58:20;;;;;;;27.57;19.30;;;21.30;99.90;;;;;;5095925;28;20171;-43
2022/08/19 08:00:48;;;;;;;25.60;18.97;;;21.40;99.90;;;;;;5077387;28;20781;-43
2022/08/19 08:03:15;;;;;;;34.83;20.97;;;21.50;99.90;;;;;;5095489;28;20217;-42
2022/08/19 08:11:12;;;;;;;24.33;16.40;;;21.90;99.90;;;;;;5095831;28;20201;-43
2022/08/19 08:13:37;;;;;;;22.37;16.10;;;22.00;99.90;;;;;;5095450;28;20209;-43
2022/08/19 08:16:03;;;;;;;26.33;17.80;;;22.10;99.90;;;;;;5095145;28;20219;-43
2022/08/19 08:18:29;;;;;;;24.83;17.97;;;22.30;99.90;;;;;;5095450;28;20273;-43
2022/08/19 08:20:56;;;;;;;19.87;15.63;;;22.40;99.90;;;;;;5095341;28;20226;-44
2022/08/19 08:23:22;;;;;;;24.67;17.63;;;22.60;99.90;;;;;;5095061;28;20179;-43
2022/08/19 08:25:48;;;;;;;24.43;17.57;;;22.80;99.90;;;;;;5095025;28;20650;-42
2022/08/19 08:28:15;;;;;;;26.23;18.10;;;22.90;99.90;;;;;;5094909;28;20687;-42
2022/08/19 08:30:43;;;;;;;26.40;19.47;;;22.90;99.90;;;;;;5094980;28;20194;-44
2022/08/19 08:33:08;;;;;;;26.73;19.83;;;23.00;99.90;;;;;;5095399;28;20531;-43
2022/08/19 08:35:34;;;;;;;24.90;17.83;;;23.10;99.90;;;;;;5094829;28;20179;-44
2022/08/19 08:38:00;;;;;;;23.50;17.37;;;23.20;99.90;;;;;;5094760;28;20178;-43
2022/08/19 08:40:37;;;;;;;23.40;18.23;;;23.30;99.90;;;;;;5094773;28;20282;-43
2022/08/19 08:43:21;;;;;;;24.77;17.50;;;23.40;99.90;;;;;;5095547;28;20155;-42
2022/08/19 08:46:09;;;;;;;22.27;17.40;;;23.40;99.90;;;;;;5094945;28;20159;-44
2022/08/19 08:48:50;;;;;;;23.23;16.77;;;23.50;99.90;;;;;;5096309;28;20179;-42
2022/08/19 08:51:23;;;;;;;29.37;18.83;;;23.50;99.90;;;;;;5096158;28;20592;-44
2022/08/19 08:53:51;;;;;;;24.13;17.93;;;23.60;99.90;;;;;;5096126;28;20217;-43
2022/08/19 08:56:18;;;;;;;23.10;17.73;;;23.60;99.90;;;;;;5097118;28;20644;-43
2022/08/19 08:59:08;;;;;;;24.00;17.10;;;23.50;99.90;;;;;;5095870;28;20651;-44
2022/08/19 09:01:35;;;;;;;22.87;17.63;;;23.40;99.90;;;;;;5096099;28;20199;-42
2022/08/19 09:04:04;;;;;;;23.63;18.20;;;23.30;99.90;;;;;;5094947;28;20658;-44
2022/08/19 09:06:33;;;;;;;24.00;17.63;;;23.30;99.90;;;;;;5094839;28;20206;-45
2022/08/19 09:09:32;;;;;;;21.03;16.37;;;23.30;99.90;;;;;;5095184;28;20171;-44
2022/08/19 09:12:09;;;;;;;24.07;14.73;;;23.30;99.90;;;;;;5073580;28;20287;-44
2022/08/19 09:14:53;;;;;;;23.07;15.63;;;23.30;99.90;;;;;;5094140;28;20170;-43
2022/08/19 09:17:33;;;;;;;27.37;16.07;;;23.40;99.90;;;;;;5093959;28;20183;-42
2022/08/19 09:20:08;;;;;;;19.30;15.87;;;23.50;99.90;;;;;;5094543;28;20166;-44
2022/08/19 09:22:39;;;;;;;24.00;17.37;;;23.50;99.90;;;;;;5094402;28;20178;-44
2022/08/19 09:25:08;;;;;;;22.77;17.00;;;23.70;99.90;;;;;;5094278;28;20187;-43
2022/08/19 09:27:36;;;;;;;21.60;16.87;;;23.70;99.90;;;;;;5094098;28;20238;-43
2022/08/19 09:30:02;;;;;;;19.47;16.57;;;23.80;99.90;;;;;;5094149;28;20224;-43
2022/08/19 09:32:28;;;;;;;17.20;15.07;;;23.80;99.90;;;;;;5093864;28;20195;-43
2022/08/19 09:34:54;;;;;;;18.33;14.13;;;23.80;99.90;;;;;;5094354;28;20174;-44
2022/08/19 09:37:21;;;;;;;18.67;13.87;;;23.80;99.90;;;;;;5074480;28;20179;-43
2022/08/19 09:39:47;;;;;;;17.57;13.73;;;23.80;99.90;;;;;;5094001;28;20240;-44
2022/08/19 09:42:13;;;;;;;16.63;14.33;;;23.70;99.90;;;;;;5075249;28;20206;-43
2022/08/19 09:44:42;;;;;;;14.63;12.27;;;23.70;99.90;;;;;;5093576;28;20175;-42
2022/08/19 09:47:11;;;;;;;15.13;11.83;;;23.60;99.90;;;;;;5093718;28;20201;-44
2022/08/19 09:49:38;;;;;;;15.20;11.43;;;23.60;99.90;;;;;;5093904;28;20254;-43
2022/08/19 09:52:07;;;;;;;17.23;11.43;;;23.70;99.90;;;;;;5093686;28;20183;-43
2022/08/19 09:54:32;;;;;;;15.07;10.73;;;23.70;99.90;;;;;;5093786;28;20308;-43
2022/08/19 09:57:00;;;;;;;18.67;10.30;;;23.80;99.90;;;;;;5093823;28;20269;-43
2022/08/19 09:59:26;;;;;;;12.60;10.47;;;24.00;99.90;;;;;;5093809;28;20179;-44
2022/08/19 10:01:51;;;;;;;13.67;11.57;;;24.10;99.90;;;;;;5093427;28;20191;-45
2022/08/19 10:04:17;;;;;;;16.27;11.03;;;24.20;99.90;;;;;;5093783;28;20308;-44
2022/08/19 10:06:43;;;;;;;13.57;9.23;;;24.40;99.90;;;;;;5093603;28;20559;-44
2022/08/19 10:09:10;;;;;;;14.50;9.57;;;24.40;99.90;;;;;;5078322;28;20687;-43
2022/08/19 10:11:37;;;;;;;14.70;11.13;;;24.60;99.90;;;;;;5098276;28;20313;-44
2022/08/19 10:14:05;;;;;;;13.53;8.60;;;24.70;99.90;;;;;;5098126;28;20167;-41
2022/08/19 10:16:31;;;;;;;14.60;8.23;;;24.80;99.90;;;;;;5097507;28;20277;-41
2022/08/19 10:18:57;;;;;;;12.77;8.30;;;24.90;99.90;;;;;;5097734;28;20182;-43
2022/08/19 10:21:29;;;;;;;11.60;9.03;;;25.00;99.90;;;;;;5097382;28;20196;-41
2022/08/19 10:23:57;;;;;;;11.33;8.97;;;25.20;99.90;;;;;;5097394;28;20179;-39
2022/08/19 10:26:28;;;;;;;13.57;9.73;;;25.20;99.90;;;;;;5097267;28;20226;-40
2022/08/19 10:28:55;;;;;;;13.33;10.63;;;25.30;99.90;;;;;;5097493;28;20582;-41
2022/08/19 10:31:26;;;;;;;13.37;10.77;;;25.30;99.90;;;;;;5097210;28;20198;-41
2022/08/19 10:33:57;;;;;;;15.33;10.47;;;25.10;99.90;;;;;;5097457;28;20506;-41
2022/08/19 10:36:26;;;;;;;15.30;10.30;;;24.90;99.90;;;;;;5097353;28;20163;-41
2022/08/19 10:38:56;;;;;;;16.33;10.80;;;24.80;99.90;;;;;;5097848;28;20201;-42
2022/08/19 10:41:24;;;;;;;14.97;10.80;;;24.80;99.90;;;;;;5097017;28;20244;-41
2022/08/19 10:43:54;;;;;;;16.60;13.23;;;24.80;99.90;;;;;;5097228;28;20175;-41
2022/08/19 10:46:22;;;;;;;16.37;11.97;;;24.90;99.90;;;;;;5097466;28;20234;-38
2022/08/19 10:48:49;;;;;;;15.53;12.33;;;25.10;99.90;;;;;;5098103;28;20523;-41
2022/08/19 10:54:00;;;;;;;15.53;10.90;;;25.50;99.90;;;;;;5097213;28;20158;-43
2022/08/19 10:59:13;;;;;;;13.90;10.97;;;25.70;99.90;;;;;;5097164;28;20692;-41
2022/08/19 11:01:39;;;;;;;14.63;11.40;;;25.50;99.90;;;;;;5096784;28;20195;-41
2022/08/19 11:04:08;;;;;;;14.67;11.40;;;25.50;99.90;;;;;;5096974;28;20257;-41
2022/08/19 11:06:34;;;;;;;13.53;11.00;;;25.50;99.90;;;;;;5096937;28;20290;-44
2022/08/19 11:08:59;;;;;;;15.00;10.90;;;25.50;99.90;;;;;;5096741;28;20182;-42
2022/08/19 11:11:26;;;;;;;13.27;9.97;;;25.50;99.90;;;;;;5096775;28;20561;-42
2022/08/19 11:13:52;;;;;;;14.90;11.23;;;25.50;99.90;;;;;;5096599;28;20178;-41
2022/08/19 11:16:23;;;;;;;16.00;10.40;;;25.60;99.90;;;;;;5096443;28;20276;-41
2022/08/19 11:18:51;;;;;;;14.43;10.07;;;25.60;99.90;;;;;;5096090;28;20213;-41
2022/08/19 11:21:19;;;;;;;11.13;8.60;;;25.60;99.90;;;;;;5096286;28;20308;-42
2022/08/19 11:23:46;;;;;;;13.03;9.90;;;25.70;99.90;;;;;;5096709;28;20562;-41
2022/08/19 11:26:13;;;;;;;13.90;9.10;;;25.80;99.90;;;;;;5096131;28;20213;-40
2022/08/19 11:28:39;;;;;;;13.60;10.27;;;26.00;99.90;;;;;;5096248;28;20185;-41
2022/08/19 11:31:11;;;;;;;17.80;10.77;;;26.10;99.90;;;;;;5096515;28;20191;-42
2022/08/19 11:33:37;;;;;;;13.87;10.23;;;26.20;99.90;;;;;;5096500;28;20170;-42
2022/08/19 11:36:02;;;;;;;12.03;9.73;;;26.20;99.90;;;;;;5096071;28;20175;-42
2022/08/19 11:38:29;;;;;;;15.00;8.73;;;26.30;99.90;;;;;;5077906;28;20185;-41
2022/08/19 11:40:59;;;;;;;11.03;8.47;;;26.40;99.90;;;;;;5096271;28;20260;-42
2022/08/19 11:43:26;;;;;;;7.77;6.53;;;26.40;99.90;;;;;;5096959;28;20175;-41
2022/08/19 11:45:52;;;;;;;8.80;7.63;;;26.50;99.90;;;;;;5096461;28;20183;-42
2022/08/19 11:48:21;;;;;;;9.90;7.23;;;26.50;99.90;;;;;;5078427;28;20232;-42
2022/08/19 11:50:51;;;;;;;10.33;7.90;;;26.40;99.90;;;;;;5096502;28;20559;-41
2022/08/19 11:53:19;;;;;;;12.30;8.93;;;26.50;99.90;;;;;;5096089;28;20537;-41
2022/08/19 11:55:46;;;;;;;11.17;9.50;;;26.70;99.90;;;;;;5077664;28;20186;-41
2022/08/19 11:58:13;;;;;;;10.40;8.27;;;26.70;99.90;;;;;;5095700;28;20179;-43
2022/08/19 12:00:40;;;;;;;12.53;8.03;;;26.70;99.90;;;;;;5095592;28;20256;-42
2022/08/19 12:03:05;;;;;;;11.43;8.00;;;26.60;99.90;;;;;;5095570;28;20263;-42
2022/08/19 12:05:31;;;;;;;9.77;7.80;;;26.60;99.90;;;;;;5095627;28;20614;-41
2022/08/19 12:07:57;;;;;;;12.57;7.83;;;26.60;99.90;;;;;;5095482;28;20207;-43
2022/08/19 12:10:23;;;;;;;10.17;8.27;;;26.80;99.90;;;;;;5095271;28;20575;-41
2022/08/19 12:12:49;;;;;;;9.23;7.23;;;26.90;99.90;;;;;;5095347;28;20228;-42
2022/08/19 12:15:14;;;;;;;11.17;6.50;;;27.10;99.90;;;;;;5077185;28;20191;-41
2022/08/19 12:17:43;;;;;;;8.27;6.57;;;27.20;99.90;;;;;;5095339;28;20189;-42
2022/08/19 12:20:10;;;;;;;9.15;6.40;;;27.30;99.90;;;;;;5095138;28;20175;-42
2022/08/19 12:22:37;;;;;;;8.45;6.47;;;27.30;99.90;;;;;;5095027;28;20219;-42
2022/08/19 12:25:04;;;;;;;7.22;6.25;;;27.40;99.90;;;;;;5095429;28;20639;-40
2022/08/19 12:27:29;;;;;;;8.00;6.05;;;27.50;99.90;;;;;;5095012;28;20202;-43
2022/08/19 12:29:55;;;;;;;9.60;5.60;;;27.50;99.90;;;;;;5094971;28;20190;-41
2022/08/19 12:32:21;;;;;;;8.25;6.40;;;27.60;99.90;;;;;;5094396;28;20202;-42
2022/08/19 12:34:47;;;;;;;7.97;5.25;;;27.70;99.90;;;;;;5076920;28;20186;-42
2022/08/19 12:37:13;;;;;;;8.48;5.35;;;27.70;99.90;;;;;;5095285;28;20210;-42
2022/08/19 12:39:41;;;;;;;9.27;5.07;;;27.70;99.90;;;;;;5095048;28;20179;-42
2022/08/19 12:42:08;;;;;;;8.60;6.78;;;27.70;99.90;;;;;;5094855;28;20213;-43
2022/08/19 12:44:35;;;;;;;10.20;6.28;;;27.70;99.90;;;;;;5094975;28;20257;-42
2022/08/19 12:47:02;;;;;;;7.47;6.22;;;27.70;99.90;;;;;;5094863;28;20569;-41
2022/08/19 12:49:29;;;;;;;7.55;6.38;;;27.70;99.90;;;;;;5094971;28;20183;-42